Latest Weather Observations for Douglas River

IDD60801

Issued at 2:01 pm CST Sunday 28 May 2017 (issued every 30 minutes, with the page automatically refreshed every 10 minutes)

About weather observations | Map of weather stations | Latest weather observations for NT | Other Formats
Station Details ID: 014901 Name: DOUGLAS RIVER Lat: -13.83 Lon: 131.19 Height: 42.8 m
Data from the previous 72 hours. | See also: Recent months at Douglas River
Date/Time
CST
Temp
°C
App
Temp
°C
Dew
Point
°C
Rel
Hum
%
Delta-T
°C
Wind Press
QNH
hPa
Press
MSL
hPa
Rain since
9am
mm
Dir  Spd
km/h
Gust
km/h
Spd
kts
Gust
kts
28/02:00pm 33.7 32.6 19.5 43 9.4 ESE 24 35 13 19 1010.9 1010.7 0.0
28/01:30pm 33.3 32.5 18.4 41 9.7 SE 20 33 11 18 1011.4 1011.2 0.0
28/01:00pm 33.4 31.6 15.9 35 11.0 SE 20 35 11 19 1011.9 1011.7 0.0
28/12:30pm 32.2 28.9 15.0 35 10.6 ESE 26 35 14 19 1012.6 1012.4 0.0
28/12:00pm 31.5 28.8 14.7 36 10.3 SE 22 32 12 17 1013.1 1012.9 0.0
28/11:30am 30.8 28.2 13.9 35 10.2 ESE 20 30 11 16 1013.5 1013.3 0.0
28/11:00am 29.9 28.1 14.4 38 9.4 SE 17 26 9 14 1013.9 1013.7 0.0
28/10:30am 28.3 27.6 14.4 42 8.4 ESE 11 17 6 9 1014.4 1014.2 0.0
28/10:00am 26.7 26.2 13.7 44 7.7 SE 9 15 5 8 1014.6 1014.4 0.0
28/09:30am 24.7 23.8 13.6 50 6.5 SE 11 15 6 8 1014.7 1014.5 0.0
28/09:00am 23.4 22.3 13.2 52 5.9 SE 11 15 6 8 1014.5 1014.3 0.0
28/08:30am 21.1 20.4 13.2 60 4.5 SSE 9 13 5 7 1014.2 1014.0 0.0
28/08:00am 19.5 19.4 13.8 69 3.3 SSE 7 9 4 5 1013.9 1013.7 0.0
28/07:30am 18.3 18.3 13.7 74 2.6 SE 6 7 3 4 1013.3 1013.1 0.0
28/07:00am 18.2 18.3 13.8 75 2.5 SSE 6 7 3 4 1013.1 1012.9 0.0
28/06:30am 18.5 18.2 13.4 72 2.9 SE 7 7 4 4 1013.0 1012.8 0.0
28/06:00am 18.2 19.4 13.8 75 2.5 CALM 0 6 0 3 1012.6 1012.4 0.0
28/05:30am 18.4 20.1 15.3 82 1.8 CALM 0 0 0 0 1012.5 1012.3 0.0
28/05:00am 19.0 20.5 14.7 76 2.5 CALM 0 0 0 0 1012.2 1012.0 0.0
28/04:30am 19.2 19.8 14.2 73 2.9 SE 4 6 2 3 1012.2 1012.0 0.0
28/04:00am 19.2 19.3 14.4 74 2.8 SE 7 9 4 5 1011.9 1011.7 0.0
28/03:30am 19.7 19.9 14.7 73 2.9 ESE 7 9 4 5 1012.0 1011.8 0.0
28/03:00am 19.8 21.1 15.2 75 2.7 E 2 6 1 3 1012.4 1012.2 0.0
28/02:30am 20.6 20.3 14.4 67 3.6 SE 9 9 5 5 1012.6 1012.4 0.0
28/02:00am 20.8 21.3 14.9 69 3.5 SSE 6 7 3 4 1012.8 1012.6 0.0
28/01:30am 21.3 21.7 15.4 69 3.5 SSE 7 9 4 5 1013.0 1012.8 0.0
28/01:00am 22.1 22.4 15.0 64 4.2 ESE 7 7 4 4 1013.1 1012.9 0.0
28/12:30am 22.4 22.6 14.6 61 4.6 SE 7 9 4 5 1013.1 1012.9 0.0
28/12:00am 22.5 23.1 15.3 63 4.3 ESE 6 7 3 4 1013.3 1013.1 0.0
 
Date/Time
CST
Temp
°C
App
Temp
°C
Dew
Point
°C
Rel
Hum
%
Delta-T
°C
Wind Press
QNH
hPa
Press
MSL
hPa
Rain since
9am
mm
Dir  Spd
km/h
Gust
km/h
Spd
kts
Gust
kts
27/11:30pm 23.0 23.2 14.7 59 4.9 ESE 7 7 4 4 1013.3 1013.1 0.0
27/11:00pm 22.6 23.5 15.2 63 4.4 E 4 6 2 3 1013.4 1013.2 0.0
27/10:30pm 22.7 23.2 15.0 61 4.6 SE 6 9 3 5 1013.2 1013.0 0.0
27/10:00pm 22.4 22.0 15.2 63 4.3 SSE 11 11 6 6 1013.0 1012.8 0.0
27/09:30pm 22.0 21.2 15.1 65 4.1 SSE 13 15 7 8 1013.0 1012.8 0.0
27/09:00pm 21.8 21.7 16.0 69 3.5 SSE 11 15 6 8 1012.9 1012.7 0.0
27/08:30pm 23.6 24.2 15.3 59 5.0 SE 6 9 3 5 1012.7 1012.5 0.0
27/08:00pm 24.2 24.2 15.2 57 5.4 SE 9 11 5 6 1012.4 1012.2 0.0
27/07:30pm 24.1 24.1 15.3 58 5.3 SE 9 9 5 5 1011.9 1011.7 0.0
27/07:00pm 25.1 25.2 15.5 55 5.8 SE 9 11 5 6 1011.5 1011.3 0.0
27/06:30pm 26.4 26.2 15.6 51 6.6 SE 11 13 6 7 1011.2 1011.0 0.0
27/06:00pm 29.3 29.0 15.5 43 8.5 SSE 11 13 6 7 1010.9 1010.7 0.0
27/05:30pm 31.7 29.2 13.4 32 11.0 ESE 19 26 10 14 1010.6 1010.4 0.0
27/05:00pm 31.9 28.7 13.1 31 11.3 SE 22 32 12 17 1010.4 1010.2 0.0
27/04:30pm 33.4 30.3 13.5 30 12.1 SE 22 32 12 17 1010.2 1010.0 0.0
27/04:00pm 33.5 29.7 12.4 27 12.6 ESE 24 32 13 17 1010.2 1010.0 0.0
27/03:30pm 33.7 30.1 12.0 26 12.9 ESE 22 30 12 16 1010.3 1010.1 0.0
27/03:00pm 33.0 28.7 10.6 25 13.0 ESE 24 33 13 18 1010.4 1010.2 0.0
27/02:30pm 33.6 29.4 11.1 25 13.2 ESE 24 39 13 21 1010.7 1010.5 0.0
27/02:00pm 33.8 28.6 10.3 23 13.6 ESE 28 41 15 22 1011.0 1010.8 0.0
27/01:43pm 34.1 28.8 10.0 23 13.9 ESE 28 46 15 25 1011.3 1011.1 0.0
27/01:30pm 33.4 27.9 10.4 24 13.3 ESE 30 39 16 21 1011.6 1011.4 0.0
27/01:00pm 33.4 27.9 9.3 22 13.7 ESE 28 41 15 22 1012.1 1011.9 0.0
27/12:42pm 33.3 28.0 9.7 23 13.5 ESE 28 46 15 25 1012.4 1012.2 0.0
27/12:30pm 32.8 27.7 10.5 25 12.9 ESE 28 39 15 21 1012.5 1012.3 0.0
27/12:00pm 32.2 27.3 11.3 27 12.2 SE 28 37 15 20 1012.9 1012.7 0.0
27/11:30am 31.7 27.6 11.5 29 11.8 SE 24 39 13 21 1013.3 1013.1 0.0
27/11:00am 30.9 27.8 11.5 30 11.3 ESE 19 28 10 15 1013.8 1013.6 0.0
27/10:30am 29.0 28.2 14.0 39 9.0 SSE 11 19 6 10 1014.0 1013.8 0.0
27/10:00am 27.2 26.5 14.4 45 7.7 SSE 11 15 6 8 1014.3 1014.1 0.0
27/09:30am 26.5 25.3 14.1 46 7.4 SSE 13 17 7 9 1014.5 1014.3 0.0
27/09:00am 24.6 22.9 13.5 50 6.5 SSE 15 19 8 10 1014.5 1014.3 0.0
27/08:30am 23.0 22.5 13.7 55 5.4 SSE 9 15 5 8 1014.6 1014.4 0.0
27/08:00am 20.3 21.6 16.1 77 2.5 SSE 4 7 2 4 1014.4 1014.2 0.0
27/07:30am 19.7 20.3 15.8 78 2.3 SE 7 7 4 4 1013.9 1013.7 0.0
27/07:00am 20.2 20.9 15.7 75 2.7 SE 6 7 3 4 1013.5 1013.3 0.0
27/06:30am 20.2 20.5 15.1 72 3.0 ESE 7 9 4 5 1013.2 1013.0 0.0
27/06:00am 19.7 21.9 16.4 81 2.0 CALM 0 0 0 0 1012.8 1012.6 0.0
27/05:30am 20.4 22.4 16.1 76 2.6 CALM 0 0 0 0 1012.5 1012.3 0.0
27/05:00am 20.9 22.8 15.7 72 3.1 CALM 0 0 0 0 1012.4 1012.2 0.0
27/04:30am 21.2 23.2 16.1 72 3.1 CALM 0 0 0 0 1012.4 1012.2 0.0
27/04:00am 21.3 23.1 15.4 69 3.5 CALM 0 0 0 0 1012.4 1012.2 0.0
27/03:30am 20.9 23.1 16.6 76 2.6 CALM 0 0 0 0 1012.6 1012.4 0.0
27/03:00am 21.1 23.1 16.1 73 3.0 CALM 0 0 0 0 1012.8 1012.6 0.0
27/02:30am 21.9 23.8 15.7 68 3.7 CALM 0 0 0 0 1013.0 1012.8 0.0
27/02:00am 21.9 23.4 14.6 63 4.3 CALM 0 0 0 0 1013.1 1012.9 0.0
27/01:30am 21.9 23.6 16.3 70 3.4 N 2 6 1 3 1013.1 1012.9 0.0
27/01:00am 22.8 22.6 13.7 56 5.3 SE 7 7 4 4 1013.0 1012.8 0.0
27/12:30am 23.1 23.1 13.7 55 5.5 ESE 6 7 3 4 1013.0 1012.8 0.0
27/12:00am 23.6 23.6 13.5 53 5.9 ESE 6 9 3 5 1012.9 1012.7 0.0
 
Date/Time
CST
Temp
°C
App
Temp
°C
Dew
Point
°C
Rel
Hum
%
Delta-T
°C
Wind Press
QNH
hPa
Press
MSL
hPa
Rain since
9am
mm
Dir  Spd
km/h
Gust
km/h
Spd
kts
Gust
kts
26/11:30pm 23.5 23.9 14.8 58 5.2 E 6 7 3 4 1013.0 1012.8 0.0
26/11:00pm 23.7 24.0 14.6 56 5.4 ESE 6 7 3 4 1013.1 1012.9 0.0
26/10:30pm 23.9 24.7 14.8 56 5.4 ESE 4 7 2 4 1013.1 1012.9 0.0
26/10:00pm 24.2 24.7 15.0 56 5.5 ESE 6 7 3 4 1012.9 1012.7 0.0
26/09:30pm 24.2 24.6 14.8 55 5.6 SE 6 7 3 4 1012.9 1012.7 0.0
26/09:00pm 24.1 24.5 16.2 61 4.8 SE 9 9 5 5 1012.8 1012.6 0.0
26/08:30pm 25.0 25.4 14.8 53 6.1 ESE 6 9 3 5 1012.7 1012.5 0.0
26/08:00pm 25.0 27.1 16.2 58 5.4 CALM 0 0 0 0 1012.3 1012.1 0.0
26/07:30pm 24.9 27.1 16.4 59 5.2 CALM 0 0 0 0 1011.9 1011.7 0.0
26/07:00pm 25.9 26.7 15.9 54 6.1 SE 6 7 3 4 1011.4 1011.2 0.0
26/06:30pm 27.1 26.8 14.5 46 7.6 SE 9 9 5 5 1011.2 1011.0 0.0
26/06:00pm 29.6 29.1 13.8 38 9.5 ESE 9 13 5 7 1010.9 1010.7 0.0
26/05:30pm 31.9 29.9 11.4 28 12.0 SE 13 19 7 10 1010.4 1010.2 0.0
26/05:00pm 32.9 29.6 9.6 24 13.3 E 17 20 9 11 1010.2 1010.0 0.0
26/04:30pm 33.4 29.9 10.2 24 13.4 E 19 24 10 13 1010.0 1009.8 0.0
26/04:00pm 33.8 30.5 10.9 24 13.4 E 19 26 10 14 1010.0 1009.8 0.0
26/03:30pm 33.6 29.3 9.4 22 13.8 E 22 35 12 19 1010.1 1009.9 0.0
26/03:00pm 33.6 30.2 11.1 25 13.2 E 20 28 11 15 1010.5 1010.3 0.0
26/02:30pm 34.0 30.9 10.4 23 13.7 ENE 17 35 9 19 1010.8 1010.6 0.0
26/02:00pm 33.7 28.7 9.6 22 13.8 E 26 39 14 21 1011.0 1010.8 0.0
26/01:30pm 33.6 29.3 9.4 22 13.8 E 22 35 12 19 1011.5 1011.3 0.0
26/01:00pm 32.8 27.6 10.2 25 13.0 E 28 44 15 24 1011.9 1011.7 0.0
26/12:30pm 33.1 27.5 10.2 24 13.2 E 30 43 16 23 1012.5 1012.3 0.0
26/12:00pm 32.3 27.0 9.9 25 12.8 E 28 43 15 23 1012.8 1012.6 0.0
26/11:30am 31.9 25.7 9.2 24 12.8 E 32 46 17 25 1013.5 1013.3 0.0
26/11:20am 31.8 26.5 9.9 26 12.5 E 28 48 15 26 1013.6 1013.4 0.0
26/11:00am 31.0 25.9 10.6 28 11.7 E 28 43 15 23 1013.9 1013.7 0.0
26/10:30am 30.0 26.1 12.0 33 10.5 E 24 33 13 18 1014.2 1014.0 0.0
26/10:00am 28.6 26.5 14.8 43 8.4 E 19 28 10 15 1014.3 1014.1 0.0
26/09:30am 26.5 26.7 17.6 58 5.6 SE 13 17 7 9 1014.5 1014.3 0.0
26/09:00am 23.9 24.5 17.6 68 3.9 SE 11 13 6 7 1014.5 1014.3 0.0
26/08:30am 21.9 22.6 18.0 78 2.4 SE 11 15 6 8 1014.3 1014.1 0.0
26/08:00am 19.8 21.2 17.7 88 1.3 SE 7 9 4 5 1014.0 1013.8 0.0
26/07:30am 17.7 19.4 16.2 91 0.9 SSE 2 6 1 3 1013.8 1013.6 0.0
26/07:00am 17.8 19.2 16.3 91 0.9 SSE 4 6 2 3 1013.4 1013.2 0.0
26/06:30am 17.9 19.4 16.6 92 0.8 S 4 6 2 3 1012.8 1012.6 0.0
26/06:00am 18.1 19.1 16.4 90 1.0 SE 6 7 3 4 1012.5 1012.3 0.0
26/05:30am 18.5 19.7 16.8 90 1.0 SE 6 7 3 4 1012.2 1012.0 0.0
26/05:00am 18.8 19.9 17.0 89 1.1 SE 7 7 4 4 1012.0 1011.8 0.0
26/04:30am 19.4 20.6 17.3 88 1.3 ESE 7 7 4 4 1012.0 1011.8 0.0
26/04:00am 19.1 20.2 17.1 88 1.2 SE 7 9 4 5 1012.0 1011.8 0.0
26/03:30am 19.7 20.8 17.2 85 1.5 ESE 7 9 4 5 1012.1 1011.9 0.0
26/03:00am 20.4 21.6 17.3 82 1.9 ESE 7 9 4 5 1012.1 1011.9 0.0
26/02:30am 19.2 22.1 18.2 94 0.6 CALM 0 0 0 0 1012.2 1012.0 0.0
26/02:00am 19.3 22.1 18.0 92 0.8 CALM 0 0 0 0 1012.4 1012.2 0.0
26/01:30am 20.4 23.2 18.0 86 1.5 CALM 0 6 0 3 1012.5 1012.3 0.0
26/01:00am 21.4 23.0 17.9 80 2.2 E 6 7 3 4 1012.6 1012.4 0.0
26/12:30am 21.1 22.7 18.2 83 1.8 E 7 9 4 5 1012.6 1012.4 0.0
26/12:00am 22.6 23.9 17.6 73 3.1 E 7 7 4 4 1012.7 1012.5 0.0
 
Date/Time
CST
Temp
°C
App
Temp
°C
Dew
Point
°C
Rel
Hum
%
Delta-T
°C
Wind Press
QNH
hPa
Press
MSL
hPa
Rain since
9am
mm
Dir  Spd
km/h
Gust
km/h
Spd
kts
Gust
kts
25/11:30pm 22.9 24.5 17.8 73 3.2 ESE 6 7 3 4 1012.8 1012.6 0.0
25/11:00pm 23.0 24.4 17.7 72 3.3 ESE 7 7 4 4 1012.8 1012.6 0.0
25/10:30pm 23.3 24.7 17.9 71 3.4 SE 7 11 4 6 1012.9 1012.7 0.0
25/10:00pm 23.5 25.1 18.3 72 3.3 SE 7 9 4 5 1013.0 1012.8 0.0
25/09:30pm 23.6 25.3 18.5 73 3.2 SE 7 9 4 5 1013.0 1012.8 0.0
25/09:00pm 23.8 24.9 18.1 70 3.6 SE 9 9 5 5 1012.9 1012.7 0.0
25/08:30pm 24.1 25.2 18.1 69 3.8 SE 9 11 5 6 1012.6 1012.4 0.0
25/08:00pm 24.3 25.5 18.3 69 3.8 SE 9 9 5 5 1012.2 1012.0 0.0
25/07:30pm 25.4 26.5 17.9 63 4.7 SE 9 9 5 5 1011.7 1011.5 0.0
25/07:00pm 26.3 26.9 17.7 59 5.4 SE 11 11 6 6 1011.3 1011.1 0.0
25/06:30pm 27.8 28.7 17.5 53 6.5 SE 9 11 5 6 1011.0 1010.8 0.0
25/06:00pm 30.2 30.5 16.9 44 8.4 SE 11 15 6 8 1010.7 1010.5 0.0
25/05:30pm 32.3 30.8 15.2 35 10.6 ESE 17 22 9 12 1010.4 1010.2 0.0
25/05:00pm 33.2 31.4 14.5 32 11.5 ESE 17 24 9 13 1010.3 1010.1 0.0
25/04:30pm 33.6 31.9 14.7 32 11.7 ESE 17 26 9 14 1010.1 1009.9 0.0
25/04:00pm 34.0 31.9 14.6 31 12.0 E 19 28 10 15 1010.0 1009.8 0.0
25/03:30pm 33.8 31.6 14.3 31 12.0 ENE 19 32 10 17 1009.9 1009.7 0.0
25/03:00pm 34.2 31.8 14.4 30 12.2 E 20 32 11 17 1010.2 1010.0 0.0
25/02:30pm 33.7 30.6 14.4 31 11.9 E 24 46 13 25 1010.6 1010.4 0.0

Other Formats:

Comma delimited format used in spreadsheet applications
http://www.bom.gov.au/fwo/IDD60801/IDD60801.94128.axf

JavaScript Object Notation format (JSON) in row-major order
http://www.bom.gov.au/fwo/IDD60801/IDD60801.94128.json